Terminal Aerodrome Forecast
Issued by NWS

Current Version | Previous Version | Text Only | Print | Product List | Glossary On
Versions: 1 2 3 4 5 6 7 8 9 10 11 12 13 14 15 16 17 18 19 20 21
000
FTUS44 KLIX 210540
TAFGPT
TAF
KGPT 210540Z 2106/2206 14015KT 1/2SM FG VV002
     FM211200 13009KT 3/4SM BR OVC004
     FM211400 13009KT 1SM BR OVC008
     FM211600 13010KT 6SM BR BKN020
     FM220100 14009KT 3SM BR BKN010
     FM220300 14009KT 2SM BR BKN003=

USA.gov is the U.S. government's official web portal to all federal, state and local government web resources and services.